デンパサール の空港の天気 - METARとTAF

デンパサール国際空港 ( WADD / DPS ) - インドネシア バリ島デンパサール
飛行場実況気象(Metar)
観測時間01/20 09:30 WITA (01/20 01:30 UTC)
風向・風速西北西 6m/s
視程8000m
天気現象
全天の4割程度の雲 雲底高度 490m
気温28℃
湿度84%
気圧1010hPa
METARWADD 200130Z 29012KT 8000 SCT016 28/25 Q1010 NOSIG
過去の天気等 Google飛行場航空写真 Wunderground天気予報

過去48時間のMETAR

飛行場予報(TAF)
発表時間: 1/20 07:00 WITA (1/19 23:00 UTC)
予報対象時間: 20日8時 WITA ~ 21日8時 WITA
風向・風速西 4m/s
視程10km以上
少しの積乱雲 雲底高度 460m
全天の4割程度の雲 雲底高度 490m
20日8時 WITA ~ 20日12時 WITA に一時的に
視程5,000m
天気現象雷雨
少しの積乱雲 雲底高度 460m
全天の8割程度の雲 雲底高度 460m
20日18時 WITA ~ 20日20時 WITA に徐々に
風向・風速不定 3m/s
全天の4割程度の雲 雲底高度 520m
TAF WADD 192300Z 2000/2100 27008KT 9999 FEW015CB SCT016
TEMPO 2000/2004 5000 TSRA FEW015CB BKN015
BECMG 2010/2012 VRB05KT SCT017